Balneario Barra do Sul, Brazil
Current Conditions -  °F | °C
As of 6:00 PM on Friday 31 Oct 2014 (Local Time) from SBJV Reporting Station
Broken Clouds Broken Clouds  
Wind Chill: 79°   Ceiling: 2500
Heat Index: 81°   Visibility: 6mi
Dew Point: 70°   Wind: 7mph
Humidity: 74%   Direction: 100°E
Pressure: 29.83"   Gusts: NA
Location:  26.46°S, 48.61°W
Report Text: SBJV 312000Z 10006KT 9999 BKN025 BKN050 26/21 Q1010
Loading
Personal Weather Stations






























Interactive Weather Map
Tropical Storm Tracking
New forecast layout! Learn more

10-Day Weather Forecast

Advertisements
Track Severe Weather on mobile